マレ の空港の天気 - METARとTAF

マレ国際空港 ( VRMM / MLE ) - モルディブ Hulhule Island, North Male Atoll
飛行場実況気象(Metar)
観測時間03/26 11:00 +05 (03/26 06:00 UTC)
風向・風速北西 3m/s
視程9000m
天気現象
少しの雲 雲底高度 580m
気温31℃
湿度66%
気圧1013hPa
METARVRMM 260600Z 31005KT 9000 FEW019 31/24 Q1013 NOSIG
過去の天気等 Google飛行場航空写真 Wunderground天気予報

過去48時間のMETAR

飛行場予報(TAF)
発表時間: 3/26 10:00 +05 (3/26 05:00 UTC)
予報対象時間: 26日11時 +05 ~ 27日17時 +05
風向・風速北西 3m/s
視程10km以上
少しの雲 雲底高度 550m
TAF VRMM 260500Z 2606/2712 31005KT 9999 FEW018